createdAt,value
2022-11-28T00:00:00.754Z,50.81
2022-11-28T00:03:03.817Z,50.66
2022-11-28T00:06:08.517Z,50.74
2022-11-28T00:09:12.127Z,50.79
2022-11-28T00:12:15.122Z,50.66
2022-11-28T00:15:19.806Z,50.78
2022-11-28T00:18:22.903Z,50.69
2022-11-28T00:21:25.947Z,50.84
2022-11-28T00:24:28.945Z,50.85
2022-11-28T00:27:31.901Z,50.76
2022-11-28T00:30:40.318Z,50.83
2022-11-28T00:33:43.800Z,50.82
2022-11-28T00:36:48.622Z,50.83
2022-11-28T00:39:51.647Z,50.94
2022-11-28T00:42:54.594Z,51.03
2022-11-28T00:45:59.014Z,50.98
2022-11-28T00:49:02.086Z,51.09
2022-11-28T00:52:05.365Z,51.21
2022-11-28T00:55:08.982Z,51.28
2022-11-28T00:58:12.031Z,51.23
2022-11-28T01:01:18.278Z,51.27
2022-11-28T01:04:21.299Z,51.25
2022-11-28T01:07:24.387Z,51.36
2022-11-28T01:10:28.019Z,51.26
2022-11-28T01:13:31.058Z,51.38
2022-11-28T01:16:35.416Z,51.31
2022-11-28T01:19:38.643Z,51.25
2022-11-28T01:22:41.553Z,51.34
2022-11-28T01:25:44.491Z,51.26
2022-11-28T01:28:48.093Z,51.20
2022-11-28T01:31:52.520Z,51.17
2022-11-28T01:34:55.523Z,51.20
2022-11-28T01:37:58.488Z,51.17
2022-11-28T01:41:02.616Z,51.30
2022-11-28T01:44:30.337Z,51.22
2022-11-28T01:47:35.823Z,51.20
2022-11-28T01:50:39.717Z,51.20
2022-11-28T01:53:46.765Z,51.23
2022-11-28T01:56:53.909Z,51.32
2022-11-28T02:00:02.048Z,51.30
2022-11-28T02:03:22.762Z,51.31
2022-11-28T02:06:27.065Z,51.33
2022-11-28T02:09:30.012Z,51.17
2022-11-28T02:12:46.572Z,51.12
2022-11-28T02:16:08.282Z,51.26
2022-11-28T02:19:43.640Z,51.21
2022-11-28T02:22:54.614Z,51.04
2022-11-28T02:26:22.742Z,51.12
2022-11-28T02:30:04.654Z,51.15
2022-11-28T02:33:24.450Z,51.01
2022-11-28T02:36:33.182Z,50.98
2022-11-28T02:39:46.395Z,50.95
2022-11-28T02:43:02.547Z,50.99
2022-11-28T02:46:11.606Z,51.09
2022-11-28T02:49:21.120Z,50.96
2022-11-28T02:52:30.017Z,51.06
2022-11-28T02:55:33.583Z,51.01
2022-11-28T02:58:37.481Z,51.08
2022-11-28T03:01:40.607Z,51.01
2022-11-28T03:04:55.152Z,51.09
2022-11-28T03:08:07.143Z,51.04
2022-11-28T03:11:19.613Z,51.07
2022-11-28T03:14:34.501Z,51.08
2022-11-28T03:17:47.174Z,50.99
2022-11-28T03:20:56.444Z,50.96
2022-11-28T03:24:04.240Z,50.98
2022-11-28T03:27:11.414Z,51.00
2022-11-28T03:30:21.643Z,51.02
2022-11-28T03:33:28.851Z,51.01
2022-11-28T03:36:39.285Z,51.02
2022-11-28T03:39:47.512Z,50.98
2022-11-28T03:42:55.855Z,50.99
2022-11-28T03:46:04.780Z,50.80
2022-11-28T03:49:10.262Z,50.75
2022-11-28T03:52:19.450Z,50.60
2022-11-28T03:55:28.728Z,50.62
2022-11-28T03:58:36.797Z,50.53
2022-11-28T04:01:49.069Z,50.50
2022-11-28T04:05:00.490Z,50.43
2022-11-28T04:08:15.230Z,50.32
2022-11-28T04:11:21.557Z,50.46
2022-11-28T04:14:30.589Z,50.31
2022-11-28T04:17:39.018Z,50.24
2022-11-28T04:20:47.244Z,50.29
2022-11-28T04:23:55.084Z,50.17
2022-11-28T04:27:03.394Z,50.24
2022-11-28T04:30:08.927Z,50.24
2022-11-28T04:33:13.758Z,50.19
2022-11-28T04:36:20.086Z,50.00
2022-11-28T04:39:26.778Z,50.07
2022-11-28T04:42:36.198Z,50.07
2022-11-28T04:45:44.929Z,50.15
2022-11-28T04:48:48.174Z,50.20
2022-11-28T04:51:59.199Z,50.20
2022-11-28T04:55:10.385Z,50.14
2022-11-28T04:58:18.031Z,50.10
2022-11-28T05:01:25.448Z,50.19
2022-11-28T05:04:28.671Z,50.15
2022-11-28T05:07:31.820Z,50.28
2022-11-28T05:10:36.249Z,50.20
2022-11-28T05:13:39.230Z,50.30
2022-11-28T05:16:42.255Z,50.24
2022-11-28T05:19:45.365Z,50.27
2022-11-28T05:22:48.327Z,50.35
2022-11-28T05:25:52.648Z,50.37
2022-11-28T05:28:57.058Z,50.33
2022-11-28T05:32:00.086Z,50.29
2022-11-28T05:35:03.451Z,50.49
2022-11-28T05:38:12.102Z,50.39
2022-11-28T05:41:29.109Z,50.39
2022-11-28T05:44:32.110Z,50.33
2022-11-28T05:47:35.350Z,50.41
2022-11-28T05:50:40.233Z,50.47
2022-11-28T05:53:43.393Z,50.47
2022-11-28T05:56:47.820Z,50.52
2022-11-28T05:59:51.156Z,50.59
2022-11-28T06:02:58.432Z,50.62
2022-11-28T06:06:04.034Z,50.65
2022-11-28T06:09:07.716Z,50.54
2022-11-28T06:12:12.115Z,50.57
2022-11-28T06:15:15.157Z,50.65
2022-11-28T06:18:18.194Z,50.68
2022-11-28T06:21:21.469Z,50.51
2022-11-28T06:24:24.471Z,50.62
2022-11-28T06:27:28.914Z,50.53
2022-11-28T06:30:31.833Z,50.71
2022-11-28T06:33:34.790Z,50.67
2022-11-28T06:36:37.726Z,50.57
2022-11-28T06:39:40.989Z,50.70
2022-11-28T06:42:48.814Z,50.68
2022-11-28T06:45:51.885Z,50.69
2022-11-28T06:48:54.966Z,50.52
2022-11-28T06:51:57.926Z,50.45
2022-11-28T06:55:00.866Z,50.49
2022-11-28T06:58:05.205Z,50.33
2022-11-28T07:01:09.779Z,50.45
2022-11-28T07:04:12.777Z,50.37
2022-11-28T07:07:16.794Z,50.33
2022-11-28T07:10:20.325Z,50.47
2022-11-28T07:13:24.772Z,50.43
2022-11-28T07:16:30.206Z,50.35
2022-11-28T07:19:33.261Z,50.35
2022-11-28T07:22:36.214Z,50.42
2022-11-28T07:25:39.178Z,50.27
2022-11-28T07:28:44.195Z,50.16
2022-11-28T07:31:47.316Z,50.26
2022-11-28T07:34:50.483Z,50.13
2022-11-28T07:37:53.518Z,50.36
2022-11-28T07:40:56.883Z,49.82
2022-11-28T07:44:02.825Z,47.09
2022-11-28T07:47:06.104Z,44.92
2022-11-28T07:50:10.186Z,45.38
2022-11-28T07:53:13.219Z,45.15
2022-11-28T07:56:18.217Z,45.09
2022-11-28T07:59:22.635Z,45.50
2022-11-28T08:02:27.249Z,45.70
2022-11-28T08:05:30.447Z,45.92
2022-11-28T08:08:34.074Z,46.00
2022-11-28T08:11:37.154Z,46.34
2022-11-28T08:14:41.630Z,46.52
2022-11-28T08:17:44.906Z,46.63
2022-11-28T08:20:47.952Z,46.93
2022-11-28T08:23:52.551Z,47.21
2022-11-28T08:26:55.638Z,47.49
2022-11-28T08:30:00.077Z,47.73
2022-11-28T08:33:03.151Z,47.81
2022-11-28T08:36:07.174Z,47.89
2022-11-28T08:39:26.500Z,48.09
2022-11-28T08:42:29.783Z,48.23
2022-11-28T08:45:35.646Z,48.46
2022-11-28T08:48:40.437Z,48.48
2022-11-28T08:51:43.418Z,48.61
2022-11-28T08:54:46.775Z,48.70
2022-11-28T08:57:49.789Z,48.85
2022-11-28T09:00:54.283Z,48.97
2022-11-28T09:03:57.868Z,48.95
2022-11-28T09:07:00.916Z,49.14
2022-11-28T09:10:04.460Z,49.24
2022-11-28T09:13:08.935Z,49.32
2022-11-28T09:16:14.371Z,49.38
2022-11-28T09:19:17.892Z,49.61
2022-11-28T09:22:20.963Z,49.58
2022-11-28T09:25:24.234Z,49.77
2022-11-28T09:28:28.816Z,49.86
2022-11-28T09:31:33.196Z,49.86
2022-11-28T09:34:36.286Z,50.06
2022-11-28T09:37:39.291Z,50.05
2022-11-28T09:40:44.842Z,50.03
2022-11-28T09:43:54.552Z,50.03
2022-11-28T09:47:03.204Z,50.12
2022-11-28T09:50:10.883Z,50.12
2022-11-28T09:53:24.472Z,50.21
2022-11-28T09:56:28.318Z,50.32
2022-11-28T09:59:32.010Z,50.30
2022-11-28T10:02:44.435Z,50.44
2022-11-28T10:05:57.891Z,50.64
2022-11-28T10:09:26.778Z,50.61
2022-11-28T10:12:44.982Z,50.67
2022-11-28T10:15:58.309Z,50.73
2022-11-28T10:19:25.518Z,50.69
2022-11-28T10:22:39.021Z,50.66
2022-11-28T10:25:45.142Z,50.61
2022-11-28T10:28:51.218Z,50.79
2022-11-28T10:31:58.433Z,50.94
2022-11-28T10:35:06.971Z,51.32
2022-11-28T10:38:14.036Z,51.36
2022-11-28T10:41:22.838Z,51.76
2022-11-28T10:44:32.182Z,52.14
2022-11-28T10:47:51.760Z,52.02
2022-11-28T10:51:02.064Z,52.37
2022-11-28T10:54:20.856Z,52.37
2022-11-28T10:57:28.870Z,52.56
2022-11-28T11:00:32.669Z,52.63
2022-11-28T11:03:37.154Z,52.64
2022-11-28T11:07:06.560Z,52.48
2022-11-28T11:10:16.567Z,52.73
2022-11-28T11:13:23.679Z,52.60
2022-11-28T11:16:26.898Z,52.69
2022-11-28T11:19:32.177Z,52.77
2022-11-28T11:22:36.563Z,52.81
2022-11-28T11:25:48.423Z,52.68
2022-11-28T11:28:55.939Z,52.74
2022-11-28T11:32:05.983Z,52.68
2022-11-28T11:35:18.834Z,52.68
2022-11-28T11:38:36.209Z,52.80
2022-11-28T11:41:43.193Z,52.80
2022-11-28T11:44:46.187Z,52.61
2022-11-28T11:47:49.217Z,52.95
2022-11-28T11:50:55.489Z,52.79
2022-11-28T11:54:04.542Z,52.73
2022-11-28T11:57:31.925Z,52.65
2022-11-28T12:00:40.276Z,52.78
2022-11-28T12:03:54.421Z,52.81
2022-11-28T12:06:59.826Z,52.77
2022-11-28T12:10:07.837Z,52.65
2022-11-28T12:13:20.012Z,52.64
2022-11-28T12:16:41.376Z,52.78
2022-11-28T12:19:55.598Z,52.72
2022-11-28T12:23:09.972Z,52.64
2022-11-28T12:26:24.739Z,52.61
2022-11-28T12:29:42.012Z,52.55
2022-11-28T12:32:57.018Z,52.51
2022-11-28T12:36:11.966Z,52.61
2022-11-28T12:39:20.564Z,52.50
2022-11-28T12:42:50.755Z,52.53
2022-11-28T12:46:00.749Z,52.47
2022-11-28T12:49:14.260Z,52.51
2022-11-28T12:52:28.771Z,52.50
2022-11-28T12:55:37.627Z,52.31
2022-11-28T12:58:48.556Z,52.28
2022-11-28T13:02:04.043Z,52.11
2022-11-28T13:05:26.118Z,52.19
2022-11-28T13:08:52.495Z,52.02
2022-11-28T13:12:08.125Z,52.05
2022-11-28T13:15:18.788Z,52.17
2022-11-28T13:18:35.060Z,52.01
2022-11-28T13:21:45.942Z,52.02
2022-11-28T13:25:00.679Z,52.14
2022-11-28T13:28:12.743Z,52.08
2022-11-28T13:31:27.820Z,52.01
2022-11-28T13:34:31.950Z,51.96
2022-11-28T13:41:35.346Z,51.98
2022-11-28T13:44:43.521Z,52.00
2022-11-28T13:47:48.233Z,52.02
2022-11-28T13:51:00.832Z,51.96
2022-11-28T13:54:46.427Z,51.94
2022-11-28T13:57:49.706Z,52.02
2022-11-28T14:01:09.662Z,52.05
2022-11-28T14:04:15.838Z,51.93
2022-11-28T14:07:28.985Z,51.87
2022-11-28T14:11:05.686Z,52.02
2022-11-28T14:14:23.960Z,51.89
2022-11-28T14:17:43.081Z,51.88
2022-11-28T14:20:58.054Z,52.00
2022-11-28T14:24:10.615Z,52.03
2022-11-28T14:27:21.049Z,52.08
2022-11-28T14:30:30.555Z,51.99
2022-11-28T14:33:38.005Z,52.16
2022-11-28T14:36:43.794Z,52.16
2022-11-28T14:39:47.750Z,52.22
2022-11-28T14:43:26.259Z,52.30
2022-11-28T14:46:31.826Z,52.34
2022-11-28T14:49:34.922Z,52.29
2022-11-28T14:52:41.139Z,52.04
2022-11-28T14:55:45.562Z,52.13
2022-11-28T14:58:49.601Z,52.18
2022-11-28T15:02:00.179Z,52.19
2022-11-28T15:05:13.474Z,52.13
2022-11-28T15:08:40.911Z,52.24
2022-11-28T15:12:02.295Z,52.25
2022-11-28T15:15:08.077Z,52.24
2022-11-28T15:18:12.399Z,52.30
2022-11-28T15:21:18.241Z,52.28
2022-11-28T15:24:28.503Z,52.34
2022-11-28T15:27:31.658Z,51.97
2022-11-28T15:30:35.798Z,52.13
2022-11-28T15:33:40.906Z,52.07
2022-11-28T15:36:44.246Z,52.02
2022-11-28T15:39:50.838Z,52.14
2022-11-28T15:42:54.173Z,52.08
2022-11-28T15:46:00.090Z,52.18
2022-11-28T15:49:05.261Z,52.21
2022-11-28T15:52:08.749Z,52.09
2022-11-28T15:55:18.042Z,52.05
2022-11-28T15:58:23.525Z,52.22
2022-11-28T16:01:28.256Z,52.22
2022-11-28T16:04:32.892Z,52.32
2022-11-28T16:07:42.675Z,52.37
2022-11-28T16:10:47.378Z,52.22
2022-11-28T16:13:51.457Z,52.30
2022-11-28T16:16:55.189Z,52.18
2022-11-28T16:19:59.308Z,52.35
2022-11-28T16:23:10.188Z,52.30
2022-11-28T16:26:26.280Z,52.55
2022-11-28T16:29:43.223Z,52.50
2022-11-28T16:32:46.411Z,52.49
2022-11-28T16:35:49.408Z,52.49
2022-11-28T16:38:55.132Z,52.47
2022-11-28T16:42:08.739Z,52.60
2022-11-28T16:45:17.441Z,52.45
2022-11-28T16:48:20.650Z,52.50
2022-11-28T16:51:35.644Z,52.47
2022-11-28T16:54:39.087Z,52.58
2022-11-28T16:57:47.963Z,52.52
2022-11-28T17:01:01.647Z,52.58
2022-11-28T17:04:05.565Z,52.62
2022-11-28T17:07:11.337Z,52.64
2022-11-28T17:10:14.854Z,52.62
2022-11-28T17:13:19.291Z,52.54
2022-11-28T17:16:23.963Z,52.54
2022-11-28T17:19:27.138Z,52.65
2022-11-28T17:22:40.516Z,52.51
2022-11-28T17:25:44.015Z,52.61
2022-11-28T17:28:48.406Z,52.53
2022-11-28T17:31:51.680Z,52.49
2022-11-28T17:34:54.735Z,52.74
2022-11-28T17:37:57.680Z,52.95
2022-11-28T17:41:01.888Z,52.69
2022-11-28T17:44:06.834Z,52.67
2022-11-28T17:47:09.767Z,52.52
2022-11-28T17:50:14.776Z,52.60
2022-11-28T17:53:20.171Z,52.46
2022-11-28T17:56:23.380Z,52.39
2022-11-28T17:59:29.272Z,52.49
2022-11-28T18:02:32.820Z,52.47
2022-11-28T18:05:37.902Z,52.50
2022-11-28T18:08:41.338Z,52.41
2022-11-28T18:11:46.306Z,52.38
2022-11-28T18:14:50.861Z,52.48
2022-11-28T18:17:54.322Z,52.43
2022-11-28T18:20:58.489Z,52.45
2022-11-28T18:24:01.704Z,52.60
2022-11-28T18:27:06.066Z,52.53
2022-11-28T18:30:13.527Z,52.40
2022-11-28T18:33:17.659Z,52.50
2022-11-28T18:36:22.805Z,52.43
2022-11-28T18:39:25.824Z,52.53
2022-11-28T18:42:28.778Z,52.84
2022-11-28T18:45:33.939Z,52.65
2022-11-28T18:48:39.725Z,52.67
2022-11-28T18:51:42.768Z,52.74
2022-11-28T18:54:46.797Z,52.67
2022-11-28T18:57:49.893Z,52.68
2022-11-28T19:00:54.528Z,52.64
2022-11-28T19:03:59.236Z,52.67
2022-11-28T19:07:04.003Z,52.64
2022-11-28T19:10:08.389Z,52.67
2022-11-28T19:13:11.607Z,52.67
2022-11-28T19:16:18.135Z,52.65
2022-11-28T19:19:21.930Z,52.64
2022-11-28T19:22:25.350Z,52.67
2022-11-28T19:25:28.338Z,52.61
2022-11-28T19:28:32.504Z,52.31
2022-11-28T19:31:38.669Z,52.50
2022-11-28T19:34:41.783Z,52.53
2022-11-28T19:37:44.843Z,52.50
2022-11-28T19:40:48.483Z,52.56
2022-11-28T19:43:52.653Z,52.42
2022-11-28T19:46:57.410Z,52.61
2022-11-28T19:50:00.409Z,52.58
2022-11-28T19:53:03.412Z,52.53
2022-11-28T19:56:09.081Z,52.71
2022-11-28T19:59:13.118Z,53.02
2022-11-28T20:02:21.560Z,52.93
2022-11-28T20:05:24.760Z,53.00
2022-11-28T20:08:28.686Z,52.82
2022-11-28T20:11:34.203Z,52.72
2022-11-28T20:14:37.665Z,52.89
2022-11-28T20:17:42.011Z,52.92
2022-11-28T20:20:45.195Z,52.82
2022-11-28T20:23:50.346Z,52.97
2022-11-28T20:26:53.918Z,52.90
2022-11-28T20:29:56.974Z,52.95
2022-11-28T20:33:01.370Z,52.99
2022-11-28T20:36:08.955Z,52.92
2022-11-28T20:39:12.839Z,53.06
2022-11-28T20:42:16.047Z,53.34
2022-11-28T20:45:19.161Z,53.08
2022-11-28T20:48:23.530Z,53.02
2022-11-28T20:51:30.122Z,52.98
2022-11-28T20:54:33.224Z,53.01
2022-11-28T20:57:36.246Z,53.09
2022-11-28T21:00:39.244Z,53.09
2022-11-28T21:03:43.727Z,53.07
2022-11-28T21:06:49.216Z,53.15
2022-11-28T21:09:54.086Z,53.05
2022-11-28T21:12:57.295Z,53.14
2022-11-28T21:16:06.061Z,53.27
2022-11-28T21:19:10.549Z,53.43
2022-11-28T21:22:13.523Z,53.47
2022-11-28T21:25:16.674Z,53.39
2022-11-28T21:28:19.658Z,53.27
2022-11-28T21:31:24.363Z,53.34
2022-11-28T21:34:28.747Z,53.17
2022-11-28T21:37:31.746Z,53.32
2022-11-28T21:40:35.330Z,53.36
2022-11-28T21:43:39.147Z,53.42
2022-11-28T21:46:42.178Z,53.75
2022-11-28T21:49:46.944Z,53.65
2022-11-28T21:52:50.099Z,53.64
2022-11-28T21:55:55.167Z,53.44
2022-11-28T21:58:58.610Z,53.39
2022-11-28T22:02:02.237Z,53.38
2022-11-28T22:05:09.293Z,53.26
2022-11-28T22:08:12.299Z,53.32
2022-11-28T22:11:16.197Z,53.24
2022-11-28T22:14:19.662Z,53.24
2022-11-28T22:17:23.530Z,53.07
2022-11-28T22:20:27.867Z,53.12
2022-11-28T22:23:31.256Z,53.06
2022-11-28T22:26:34.680Z,52.98
2022-11-28T22:29:39.445Z,51.44
2022-11-28T22:32:43.141Z,48.72
2022-11-28T22:35:47.646Z,46.85
2022-11-28T22:38:55.554Z,48.11
2022-11-28T22:41:59.752Z,47.92
2022-11-28T22:45:02.818Z,47.37
2022-11-28T22:48:06.613Z,47.23
2022-11-28T22:51:14.369Z,47.27
2022-11-28T22:54:17.489Z,47.37
2022-11-28T22:57:20.442Z,47.57
2022-11-28T23:00:23.966Z,47.60
2022-11-28T23:03:27.414Z,47.70
2022-11-28T23:06:33.625Z,47.80
2022-11-28T23:09:36.634Z,47.97
2022-11-28T23:12:40.730Z,48.03
2022-11-28T23:15:48.427Z,48.03
2022-11-28T23:18:57.648Z,48.08
2022-11-28T23:22:02.021Z,48.20
2022-11-28T23:25:05.918Z,48.21
2022-11-28T23:28:08.874Z,48.21
2022-11-28T23:31:17.467Z,48.30
2022-11-28T23:34:20.748Z,48.48
2022-11-28T23:37:25.367Z,48.47
2022-11-28T23:40:28.858Z,48.69
2022-11-28T23:43:32.417Z,48.61
2022-11-28T23:46:35.647Z,48.75
2022-11-28T23:49:38.659Z,48.75
2022-11-28T23:52:43.119Z,48.98
2022-11-28T23:55:46.096Z,48.96
2022-11-28T23:58:49.704Z,49.06
